createdAt,value
2023-11-13T00:04:05.858Z,96.02
2023-11-13T00:14:05.895Z,95.61
2023-11-13T00:24:06.107Z,95.30
2023-11-13T00:34:06.332Z,95.25
2023-11-13T00:44:06.582Z,95.98
2023-11-13T00:54:06.879Z,96.08
2023-11-13T01:04:06.821Z,95.98
2023-11-13T01:14:06.816Z,96.39
2023-11-13T01:24:07.114Z,95.83
2023-11-13T01:34:07.483Z,96.18
2023-11-13T01:44:10.662Z,97.01
2023-11-13T01:54:07.644Z,96.86
2023-11-13T02:04:07.970Z,95.06
2023-11-13T02:14:07.958Z,94.76
2023-11-13T02:24:08.230Z,94.65
2023-11-13T02:34:08.249Z,95.48
2023-11-13T02:44:08.506Z,94.45
2023-11-13T02:54:08.668Z,94.34
2023-11-13T03:04:09.016Z,95.21
2023-11-13T03:14:09.065Z,93.83
2023-11-13T03:24:09.132Z,94.03
2023-11-13T03:34:09.158Z,93.06
2023-11-13T03:44:11.451Z,92.34
2023-11-13T03:54:09.429Z,92.18
2023-11-13T04:04:09.782Z,93.01
2023-11-13T04:14:09.754Z,93.52
2023-11-13T04:24:09.940Z,92.18
2023-11-13T04:34:10.163Z,91.58
2023-11-13T04:44:10.421Z,90.66
2023-11-13T04:54:10.416Z,91.58
2023-11-13T05:04:11.622Z,92.71
2023-11-13T05:14:10.811Z,91.53
2023-11-13T05:24:11.050Z,94.20
2023-11-13T05:34:11.286Z,94.30
2023-11-13T05:44:11.583Z,94.51
2023-11-13T05:54:11.539Z,94.30
2023-11-13T06:04:11.956Z,93.58
2023-11-13T06:14:12.230Z,94.92
2023-11-13T06:24:12.328Z,95.53
2023-11-13T06:34:12.295Z,96.36
2023-11-13T06:44:12.533Z,96.56
2023-11-13T06:54:12.713Z,96.88
2023-11-13T07:04:13.193Z,96.77
2023-11-13T07:14:13.356Z,96.67
2023-11-13T07:24:13.575Z,97.18
2023-11-13T07:34:13.411Z,97.60
2023-11-13T07:44:13.647Z,97.49
2023-11-13T07:54:13.828Z,96.93
2023-11-13T08:04:14.172Z,97.14
2023-11-13T08:14:14.139Z,96.06
2023-11-13T08:24:14.407Z,97.14
2023-11-13T08:34:14.412Z,97.50
2023-11-13T08:44:15.577Z,96.22
2023-11-13T08:54:14.769Z,94.84
2023-11-13T09:04:15.152Z,95.15
2023-11-13T09:14:15.132Z,94.74
2023-11-13T09:24:15.400Z,93.57
2023-11-13T09:34:15.576Z,93.42
2023-11-13T09:44:15.770Z,92.25
2023-11-13T09:54:15.969Z,91.84
2023-11-13T10:04:20.633Z,92.72
2023-11-13T10:14:16.364Z,91.69
2023-11-13T10:24:23.221Z,90.07
2023-11-13T10:34:17.650Z,90.69
2023-11-13T10:44:16.885Z,89.62
2023-11-13T10:54:17.047Z,89.31
2023-11-13T11:04:17.397Z,89.37
2023-11-13T11:14:17.377Z,88.76
2023-11-13T11:24:17.616Z,89.53
2023-11-13T11:34:17.814Z,87.85
2023-11-13T11:44:18.096Z,86.24
2023-11-13T11:54:18.070Z,84.20
2023-11-13T12:04:18.356Z,84.26
2023-11-13T12:14:18.321Z,84.67
2023-11-13T12:24:21.004Z,83.75
2023-11-13T12:34:18.605Z,84.33
2023-11-13T12:44:19.000Z,84.42
2023-11-13T12:54:19.152Z,86.61
2023-11-13T13:04:19.247Z,88.76
2023-11-13T13:14:19.473Z,85.96
2023-11-13T13:24:19.544Z,88.14
2023-11-13T13:34:19.552Z,86.36
2023-11-13T13:44:19.832Z,85.24
2023-11-13T13:54:19.815Z,87.08
2023-11-13T14:04:20.301Z,85.92
2023-11-13T14:14:20.063Z,88.06
2023-11-13T14:24:22.085Z,85.98
2023-11-13T14:34:20.476Z,88.67
2023-11-13T14:44:20.516Z,86.83
2023-11-13T14:54:20.689Z,86.29
2023-11-13T15:04:21.000Z,84.11
2023-11-13T15:14:20.964Z,84.31
2023-11-13T15:24:21.301Z,86.69
2023-11-13T15:34:26.929Z,85.94
2023-11-13T15:44:22.484Z,84.41
2023-11-13T15:54:21.708Z,85.43
2023-11-13T16:04:21.990Z,84.92
2023-11-13T16:14:24.016Z,82.88
2023-11-13T16:24:22.199Z,82.43
2023-11-13T16:34:22.511Z,83.35
2023-11-13T16:44:22.480Z,85.08
2023-11-13T16:54:24.539Z,82.90
2023-11-13T17:04:22.776Z,81.85
2023-11-13T17:14:24.027Z,82.19
2023-11-13T17:24:23.091Z,83.11
2023-11-13T17:34:23.337Z,84.58
2023-11-13T17:44:23.934Z,84.58
2023-11-13T17:54:24.153Z,87.16
2023-11-13T18:04:24.440Z,87.57
2023-11-13T18:14:24.300Z,86.10
2023-11-13T18:24:24.404Z,89.34
2023-11-13T18:34:24.711Z,86.82
2023-11-13T18:44:24.971Z,86.06
2023-11-13T18:54:25.299Z,91.08
2023-11-13T19:04:25.430Z,90.26
2023-11-13T19:14:25.779Z,88.39
2023-11-13T19:24:26.640Z,89.55
2023-11-13T19:34:25.984Z,88.84
2023-11-13T19:44:26.454Z,89.34
2023-11-13T19:54:26.029Z,88.93
2023-11-13T20:04:26.128Z,87.82
2023-11-13T20:14:26.160Z,83.92
2023-11-13T20:24:26.389Z,83.78
2023-11-13T20:34:26.657Z,79.50
2023-11-13T20:44:26.872Z,82.87
2023-11-13T20:54:27.148Z,83.56
2023-11-13T21:04:26.704Z,81.65
2023-11-13T21:14:26.932Z,81.79
2023-11-13T21:24:27.111Z,82.19
2023-11-13T21:34:27.558Z,79.33
2023-11-13T21:44:27.493Z,79.33
2023-11-13T21:54:27.766Z,80.93
2023-11-13T22:04:28.051Z,78.76
2023-11-13T22:14:28.238Z,78.45
2023-11-13T22:24:28.222Z,79.50
2023-11-13T22:34:28.641Z,79.50
2023-11-13T22:44:28.682Z,80.40
2023-11-13T22:54:28.981Z,79.03
2023-11-13T23:04:29.229Z,80.84
2023-11-13T23:14:29.457Z,79.58
2023-11-13T23:24:29.448Z,79.68
2023-11-13T23:34:29.772Z,82.71
2023-11-13T23:44:29.710Z,77.03
2023-11-13T23:54:30.905Z,77.03
